createdAt,value
2023-03-16T00:02:33.559Z,2.02
2023-03-16T00:06:11.615Z,2.01
2023-03-16T00:09:48.958Z,2.00
2023-03-16T00:13:26.386Z,1.99
2023-03-16T00:17:06.543Z,2.00
2023-03-16T00:20:42.061Z,1.98
2023-03-16T00:24:20.320Z,1.98
2023-03-16T00:27:56.963Z,1.97
2023-03-16T00:31:34.992Z,1.97
2023-03-16T00:35:14.436Z,1.94
2023-03-16T00:38:50.301Z,1.93
2023-03-16T00:42:29.741Z,1.94
2023-03-16T00:46:06.959Z,1.96
2023-03-16T00:49:44.355Z,1.99
2023-03-16T00:53:22.545Z,2.01
2023-03-16T00:56:59.841Z,2.02
2023-03-16T01:00:37.239Z,2.03
2023-03-16T01:04:14.336Z,2.04
2023-03-16T01:07:52.429Z,2.04
2023-03-16T01:11:40.031Z,2.04
2023-03-16T01:15:08.221Z,2.05
2023-03-16T01:18:45.120Z,2.06
2023-03-16T01:22:22.742Z,2.08
2023-03-16T01:26:00.601Z,2.08
2023-03-16T01:29:40.255Z,2.08
2023-03-16T01:33:15.018Z,2.07
2023-03-16T01:36:54.286Z,2.07
2023-03-16T01:40:31.487Z,2.06
2023-03-16T01:44:20.311Z,2.07
2023-03-16T01:47:45.599Z,2.06
2023-03-16T01:51:43.412Z,2.06
2023-03-16T01:55:06.370Z,2.05
2023-03-16T01:58:40.125Z,2.04
2023-03-16T02:02:20.588Z,2.05
2023-03-16T02:06:04.587Z,2.05
2023-03-16T02:09:32.354Z,2.05
2023-03-16T02:13:09.590Z,2.04
2023-03-16T02:16:48.619Z,2.03
2023-03-16T02:20:37.757Z,2.02
2023-03-16T02:24:04.001Z,2.01
2023-03-16T02:27:46.654Z,2.01
2023-03-16T02:31:18.796Z,2.00
2023-03-16T02:34:56.975Z,1.99
2023-03-16T02:38:33.956Z,1.98
2023-03-16T02:42:17.034Z,1.98
2023-03-16T02:45:51.458Z,1.98
2023-03-16T02:49:34.834Z,2.00
2023-03-16T02:53:04.158Z,2.02
2023-03-16T02:56:42.185Z,2.04
2023-03-16T03:00:22.111Z,2.07
2023-03-16T03:03:57.113Z,2.10
2023-03-16T03:07:34.592Z,2.12
2023-03-16T03:11:12.451Z,2.14
2023-03-16T03:14:49.932Z,2.16
2023-03-16T03:18:28.312Z,2.16
2023-03-16T03:22:06.609Z,2.17
2023-03-16T03:25:43.554Z,2.16
2023-03-16T03:29:20.735Z,2.15
2023-03-16T03:32:58.318Z,2.14
2023-03-16T03:36:36.180Z,2.14
2023-03-16T03:40:16.552Z,2.12
2023-03-16T03:43:51.594Z,2.12
2023-03-16T03:47:48.057Z,2.11
2023-03-16T03:51:06.986Z,2.11
2023-03-16T03:54:44.504Z,2.12
2023-03-16T03:58:21.876Z,2.14
2023-03-16T04:02:00.120Z,2.18
2023-03-16T04:05:37.381Z,2.21
2023-03-16T04:09:14.980Z,2.24
2023-03-16T04:12:52.763Z,2.26
2023-03-16T04:16:30.896Z,2.29
2023-03-16T04:20:16.160Z,2.30
2023-03-16T04:23:45.924Z,2.31
2023-03-16T04:27:23.359Z,2.31
2023-03-16T04:31:07.237Z,2.31
2023-03-16T04:34:41.915Z,2.32
2023-03-16T04:38:16.674Z,2.32
2023-03-16T04:41:54.007Z,2.32
2023-03-16T04:45:32.529Z,2.30
2023-03-16T04:49:10.326Z,2.29
2023-03-16T04:52:47.054Z,2.29
2023-03-16T04:56:25.093Z,2.28
2023-03-16T05:00:09.910Z,2.29
2023-03-16T05:03:40.874Z,2.30
2023-03-16T05:07:18.034Z,2.30
2023-03-16T05:10:59.055Z,2.30
2023-03-16T05:14:33.071Z,2.30
2023-03-16T05:18:11.010Z,2.30
2023-03-16T05:21:48.555Z,2.31
2023-03-16T05:25:26.021Z,2.32
2023-03-16T05:29:04.483Z,2.33
2023-03-16T05:32:41.639Z,2.33
2023-03-16T05:36:19.440Z,2.34
2023-03-16T05:39:58.810Z,2.34
2023-03-16T05:43:34.605Z,2.33
2023-03-16T05:47:12.636Z,2.36
2023-03-16T05:50:51.938Z,2.42
2023-03-16T05:54:27.806Z,2.49
2023-03-16T05:58:05.978Z,2.55
2023-03-16T06:01:43.494Z,2.60
2023-03-16T06:05:23.410Z,2.62
2023-03-16T06:08:58.484Z,2.60
2023-03-16T06:12:36.117Z,2.62
2023-03-16T06:16:14.563Z,2.64
2023-03-16T06:19:51.528Z,2.73
2023-03-16T06:23:29.164Z,2.95
2023-03-16T06:27:06.731Z,3.26
2023-03-16T06:30:44.419Z,3.60
2023-03-16T06:34:22.808Z,3.80
2023-03-16T06:38:00.295Z,3.76
2023-03-16T06:41:38.382Z,3.68
2023-03-16T06:45:16.992Z,3.63
2023-03-16T06:48:52.885Z,3.57
2023-03-16T06:52:31.943Z,3.51
2023-03-16T06:56:08.536Z,3.46
2023-03-16T06:59:45.927Z,3.43
2023-03-16T07:03:25.814Z,3.42
2023-03-16T07:07:01.564Z,3.44
2023-03-16T07:10:38.904Z,3.44
2023-03-16T07:14:16.803Z,3.44
2023-03-16T07:17:54.158Z,3.52
2023-03-16T07:21:39.443Z,3.66
2023-03-16T07:25:11.590Z,3.83
2023-03-16T07:28:47.284Z,4.03
2023-03-16T07:32:24.609Z,4.20
2023-03-16T07:36:06.177Z,4.30
2023-03-16T07:39:40.335Z,4.39
2023-03-16T07:43:18.401Z,4.55
2023-03-16T07:46:56.180Z,4.69
2023-03-16T07:50:33.520Z,4.85
2023-03-16T07:54:10.738Z,4.83
2023-03-16T07:57:48.620Z,4.71
2023-03-16T08:01:26.238Z,4.66
2023-03-16T08:05:04.303Z,4.60
2023-03-16T08:08:41.621Z,4.52
2023-03-16T08:12:19.216Z,4.47
2023-03-16T08:16:02.372Z,4.51
2023-03-16T08:19:34.537Z,4.64
2023-03-16T08:23:13.494Z,4.77
2023-03-16T08:26:50.000Z,5.04
2023-03-16T08:30:27.835Z,5.39
2023-03-16T08:34:24.706Z,5.56
2023-03-16T08:37:43.992Z,5.62
2023-03-16T08:41:21.077Z,5.68
2023-03-16T08:45:01.028Z,5.79
2023-03-16T08:48:36.489Z,5.80
2023-03-16T08:52:13.413Z,5.75
2023-03-16T08:55:51.983Z,5.66
2023-03-16T08:59:30.740Z,5.62
2023-03-16T09:03:07.816Z,5.58
2023-03-16T09:06:44.297Z,5.61
2023-03-16T09:10:23.352Z,5.66
2023-03-16T09:14:00.385Z,5.64
2023-03-16T09:17:37.221Z,5.62
2023-03-16T09:21:15.285Z,5.55
2023-03-16T09:24:52.824Z,5.47
2023-03-16T09:28:31.473Z,5.43
2023-03-16T09:32:10.008Z,5.43
2023-03-16T09:35:46.312Z,5.42
2023-03-16T09:39:23.242Z,5.40
2023-03-16T09:43:25.912Z,5.37
2023-03-16T09:46:45.534Z,5.34
2023-03-16T09:50:38.236Z,5.33
2023-03-16T09:57:36.162Z,5.43
2023-03-16T10:01:23.485Z,5.48
2023-03-16T10:04:51.991Z,5.55
2023-03-16T10:08:40.954Z,5.65
2023-03-16T10:12:05.997Z,5.78
2023-03-16T10:15:40.973Z,5.87
2023-03-16T10:19:40.697Z,5.88
2023-03-16T10:22:55.768Z,5.86
2023-03-16T10:26:45.344Z,5.83
2023-03-16T10:30:34.398Z,5.76
2023-03-16T10:33:50.997Z,5.68
2023-03-16T10:37:30.128Z,5.61
2023-03-16T10:41:03.654Z,5.54
2023-03-16T10:44:41.443Z,5.39
2023-03-16T10:48:22.416Z,5.19
2023-03-16T10:52:03.245Z,5.04
2023-03-16T10:55:43.682Z,4.95
2023-03-16T10:59:34.566Z,4.92
2023-03-16T11:02:57.158Z,4.94
2023-03-16T11:06:30.898Z,5.00
2023-03-16T11:10:30.427Z,5.09
2023-03-16T11:13:47.179Z,5.19
2023-03-16T11:17:38.258Z,5.27
2023-03-16T11:21:08.385Z,5.33
2023-03-16T11:25:01.067Z,5.38
2023-03-16T11:28:20.025Z,5.42
2023-03-16T11:32:00.950Z,5.44
2023-03-16T11:35:33.250Z,5.43
2023-03-16T11:39:37.880Z,5.46
2023-03-16T11:42:56.831Z,5.64
2023-03-16T11:46:36.859Z,5.85
2023-03-16T11:50:31.487Z,5.97
2023-03-16T11:54:14.804Z,5.99
2023-03-16T11:57:31.598Z,6.05
2023-03-16T12:01:16.322Z,6.08
2023-03-16T12:04:41.103Z,6.11
2023-03-16T12:08:25.732Z,6.17
2023-03-16T12:12:11.616Z,6.19
2023-03-16T12:15:39.601Z,6.18
2023-03-16T12:19:12.149Z,6.15
2023-03-16T12:22:52.234Z,6.17
2023-03-16T12:26:19.480Z,6.20
2023-03-16T12:30:13.300Z,6.26
2023-03-16T12:33:35.293Z,6.29
2023-03-16T12:37:36.272Z,6.36
2023-03-16T12:41:10.321Z,6.36
2023-03-16T12:44:31.490Z,6.37
2023-03-16T12:48:25.272Z,6.47
2023-03-16T12:51:43.337Z,6.57
2023-03-16T12:55:24.700Z,6.67
2023-03-16T12:58:59.133Z,6.74
2023-03-16T13:02:37.785Z,6.85
2023-03-16T13:06:21.751Z,7.01
2023-03-16T13:13:27.891Z,7.12
2023-03-16T13:17:16.907Z,7.15
2023-03-16T13:20:48.209Z,7.16
2023-03-16T13:24:37.041Z,7.13
2023-03-16T13:27:59.458Z,7.18
2023-03-16T13:31:41.427Z,7.30
2023-03-16T13:35:15.609Z,7.36
2023-03-16T13:39:15.266Z,7.44
2023-03-16T13:42:32.863Z,7.40
2023-03-16T13:46:22.555Z,7.34
2023-03-16T13:49:48.204Z,7.33
2023-03-16T13:53:31.732Z,7.36
2023-03-16T13:57:04.423Z,7.46
2023-03-16T14:00:45.746Z,7.59
2023-03-16T14:04:19.961Z,7.70
2023-03-16T14:07:55.458Z,7.74
2023-03-16T14:11:31.635Z,7.69
2023-03-16T14:15:30.397Z,7.59
2023-03-16T14:18:49.955Z,7.59
2023-03-16T14:22:34.449Z,7.66
2023-03-16T14:26:05.061Z,7.73
2023-03-16T14:29:42.843Z,7.79
2023-03-16T14:33:33.657Z,7.82
2023-03-16T14:37:13.047Z,7.82
2023-03-16T14:40:32.483Z,7.82
2023-03-16T14:44:32.617Z,7.86
2023-03-16T14:48:17.421Z,7.86
2023-03-16T14:51:40.941Z,7.81
2023-03-16T14:55:19.608Z,7.64
2023-03-16T14:58:47.714Z,7.43
2023-03-16T15:02:33.442Z,7.31
2023-03-16T15:06:03.262Z,7.25
2023-03-16T15:09:46.233Z,7.20
2023-03-16T15:13:40.627Z,7.12
2023-03-16T15:16:55.522Z,7.00
2023-03-16T15:20:39.100Z,6.91
2023-03-16T15:24:12.736Z,6.88
2023-03-16T15:27:49.061Z,6.85
2023-03-16T15:31:26.985Z,6.81
2023-03-16T15:35:04.341Z,6.72
2023-03-16T15:38:46.317Z,6.62
2023-03-16T15:42:20.143Z,6.53
2023-03-16T15:45:59.970Z,6.45
2023-03-16T15:49:46.573Z,6.39
2023-03-16T15:53:30.251Z,6.33
2023-03-16T15:56:54.546Z,6.29
2023-03-16T16:00:36.614Z,6.22
2023-03-16T16:04:12.588Z,6.15
2023-03-16T16:07:44.534Z,6.06
2023-03-16T16:11:25.276Z,5.99
2023-03-16T16:14:58.452Z,5.88
2023-03-16T16:18:37.738Z,5.78
2023-03-16T16:22:14.102Z,5.66
2023-03-16T16:25:54.489Z,5.52
2023-03-16T16:29:34.004Z,5.40
2023-03-16T16:33:27.628Z,5.27
2023-03-16T16:36:45.239Z,5.15
2023-03-16T16:40:25.842Z,5.02
2023-03-16T16:44:05.294Z,4.92
2023-03-16T16:47:37.823Z,4.82
2023-03-16T16:51:21.659Z,4.70
2023-03-16T16:54:53.125Z,4.58
2023-03-16T16:58:31.231Z,4.47
2023-03-16T17:02:30.748Z,4.35
2023-03-16T17:05:46.186Z,4.26
2023-03-16T17:09:25.348Z,4.16
2023-03-16T17:13:01.192Z,4.10
2023-03-16T17:16:39.449Z,4.04
2023-03-16T17:20:21.071Z,3.97
2023-03-16T17:23:54.508Z,3.93
2023-03-16T17:27:33.325Z,3.88
2023-03-16T17:34:48.626Z,3.76
2023-03-16T17:38:25.469Z,3.70
2023-03-16T17:42:16.134Z,3.65
2023-03-16T17:45:40.281Z,3.59
2023-03-16T17:49:19.961Z,3.54
2023-03-16T17:52:55.958Z,3.50
2023-03-16T17:56:34.003Z,3.45
2023-03-16T18:00:32.286Z,3.41
2023-03-16T18:03:48.989Z,3.37
2023-03-16T18:07:26.121Z,3.32
2023-03-16T18:11:12.301Z,3.30
2023-03-16T18:14:42.053Z,3.28
2023-03-16T18:18:22.845Z,3.26
2023-03-16T18:21:57.577Z,3.23
2023-03-16T18:25:39.382Z,3.21
2023-03-16T18:29:13.764Z,3.17
2023-03-16T18:32:52.166Z,3.14
2023-03-16T18:36:32.333Z,3.12
2023-03-16T18:40:07.156Z,3.08
2023-03-16T18:43:43.972Z,3.04
2023-03-16T18:47:24.039Z,3.02
2023-03-16T18:50:59.738Z,2.98
2023-03-16T18:54:36.621Z,2.95
2023-03-16T18:58:22.729Z,2.92
2023-03-16T19:01:53.226Z,2.91
2023-03-16T19:05:37.965Z,2.89
2023-03-16T19:09:14.566Z,2.89
2023-03-16T19:12:44.707Z,2.88
2023-03-16T19:16:23.287Z,2.88
2023-03-16T19:19:59.950Z,2.86
2023-03-16T19:23:38.008Z,2.85
2023-03-16T19:27:30.514Z,2.81
2023-03-16T19:30:52.621Z,2.76
2023-03-16T19:34:30.965Z,2.74
2023-03-16T19:38:08.512Z,2.71
2023-03-16T19:41:57.817Z,2.69
2023-03-16T19:45:29.946Z,2.65
2023-03-16T19:49:01.109Z,2.62
2023-03-16T19:52:39.261Z,2.60
2023-03-16T19:56:19.043Z,2.58
2023-03-16T19:59:56.739Z,2.57
2023-03-16T20:03:35.414Z,2.54
2023-03-16T20:07:17.236Z,2.52
2023-03-16T20:10:48.213Z,2.49
2023-03-16T20:14:32.271Z,2.44
2023-03-16T20:18:03.073Z,2.41
2023-03-16T20:21:41.016Z,2.37
2023-03-16T20:25:18.736Z,2.33
2023-03-16T20:28:55.776Z,2.26
2023-03-16T20:32:52.466Z,2.22
2023-03-16T20:36:12.422Z,2.18
2023-03-16T20:39:49.211Z,2.17
2023-03-16T20:43:29.107Z,2.13
2023-03-16T20:47:03.814Z,2.07
2023-03-16T20:50:42.018Z,2.06
2023-03-16T20:57:58.074Z,2.05
2023-03-16T21:01:35.256Z,2.09
2023-03-16T21:05:13.719Z,2.08
2023-03-16T21:08:53.734Z,2.05
2023-03-16T21:12:31.595Z,2.02
2023-03-16T21:16:05.840Z,2.01
2023-03-16T21:19:43.268Z,1.97
2023-03-16T21:23:23.794Z,1.96
2023-03-16T21:26:58.108Z,1.95
2023-03-16T21:30:40.090Z,1.95
2023-03-16T21:34:31.016Z,1.94
2023-03-16T21:37:52.988Z,1.94
2023-03-16T21:41:29.347Z,1.94
2023-03-16T21:45:07.370Z,1.94
2023-03-16T21:48:47.473Z,1.94
2023-03-16T21:52:25.559Z,1.95
2023-03-16T21:56:00.513Z,1.96
2023-03-16T21:59:37.511Z,1.96
2023-03-16T22:03:50.020Z,1.97
2023-03-16T22:06:52.596Z,1.97
2023-03-16T22:10:30.474Z,1.97
2023-03-16T22:14:10.258Z,1.97
2023-03-16T22:17:46.316Z,1.98
2023-03-16T22:21:39.360Z,1.98
2023-03-16T22:25:01.288Z,1.97
2023-03-16T22:28:38.682Z,1.97
2023-03-16T22:32:19.783Z,1.98
2023-03-16T22:35:55.754Z,1.97
2023-03-16T22:39:40.309Z,1.94
2023-03-16T22:43:18.877Z,1.87
2023-03-16T22:46:46.968Z,1.83
2023-03-16T22:50:27.869Z,1.79
2023-03-16T22:54:07.201Z,1.78
2023-03-16T22:57:40.046Z,1.78
2023-03-16T23:01:42.857Z,1.74
2023-03-16T23:04:56.253Z,1.71
2023-03-16T23:08:33.234Z,1.72
2023-03-16T23:12:21.377Z,1.74
2023-03-16T23:15:50.001Z,1.75
2023-03-16T23:19:27.914Z,1.76
2023-03-16T23:23:04.275Z,1.77
2023-03-16T23:26:41.389Z,1.77
2023-03-16T23:30:25.045Z,1.79
2023-03-16T23:33:56.653Z,1.81
2023-03-16T23:37:34.183Z,1.80
2023-03-16T23:41:15.352Z,1.81
2023-03-16T23:44:50.010Z,1.82
2023-03-16T23:48:27.572Z,1.82
2023-03-16T23:52:05.442Z,1.83
2023-03-16T23:55:43.928Z,1.84
2023-03-16T23:59:21.078Z,1.86
